Time;durP1;ratioP1;P1;durP2;ratioP2;P2;SDS_P1;SDS_P2;PMS_P1;PMS_P2;Temp;Humidity;BMP_temperature;BMP_pressure;BME280_temperature;BME280_humidity;BME280_pressure;Samples;Min_cycle;Max_cycle;Signal;HPM_P1;HPM_P2
2023/03/08 00:01:22;;;;;;;14.60;6.45;;;;;;;11.03;66.46;99975.72;5045909;28;20101;-83
2023/03/08 00:03:53;;;;;;;20.33;5.38;;;;;;;11.04;65.88;99969.38;5051122;28;20068;-83
2023/03/08 00:06:19;;;;;;;15.07;4.47;;;;;;;11.05;66.23;99966.50;5042053;28;20091;-84
2023/03/08 00:08:47;;;;;;;7.97;4.47;;;;;;;10.97;65.75;99949.41;5037527;28;20037;-83
2023/03/08 00:11:13;;;;;;;28.65;6.18;;;;;;;10.97;65.89;99958.31;5053337;28;20071;-83
2023/03/08 00:13:39;;;;;;;14.45;5.35;;;;;;;10.98;65.94;99965.38;5047946;28;20033;-84
2023/03/08 00:16:07;;;;;;;25.17;6.32;;;;;;;10.87;65.44;99955.63;5032331;28;20079;-83
2023/03/08 00:18:34;;;;;;;14.13;5.20;;;;;;;10.87;66.07;99952.94;5032226;28;20021;-84
2023/03/08 00:20:59;;;;;;;16.02;4.88;;;;;;;10.92;65.86;99961.44;5031649;28;20059;-83
2023/03/08 00:23:25;;;;;;;19.08;6.18;;;;;;;10.92;65.87;99956.03;5030590;28;20053;-84
2023/03/08 00:25:52;;;;;;;16.67;5.60;;;;;;;10.90;66.17;99960.72;5031186;28;20120;-85
2023/03/08 00:28:17;;;;;;;27.45;6.50;;;;;;;10.80;65.97;99959.88;5031489;28;20029;-83
2023/03/08 00:30:43;;;;;;;25.70;6.80;;;;;;;10.79;66.03;99960.88;5030466;28;20036;-83
2023/03/08 00:33:08;;;;;;;23.08;6.20;;;;;;;10.73;66.03;99947.16;5030685;28;20053;-82
2023/03/08 00:35:33;;;;;;;17.88;5.72;;;;;;;10.69;66.11;99943.06;5029135;28;20444;-82
2023/03/08 00:37:59;;;;;;;11.02;4.18;;;;;;;10.65;66.04;99955.06;5030871;28;20049;-82
2023/03/08 00:40:24;;;;;;;13.68;4.38;;;;;;;10.61;66.29;99954.50;5030717;28;20032;-84
2023/03/08 00:42:50;;;;;;;11.30;4.15;;;;;;;10.58;66.82;99952.09;5030739;28;20028;-84
2023/03/08 00:45:15;;;;;;;10.60;4.47;;;;;;;10.51;66.65;99947.44;5030255;28;20401;-84
2023/03/08 00:47:41;;;;;;;9.65;4.90;;;;;;;10.58;66.14;99949.41;5030843;28;20057;-83
2023/03/08 00:50:07;;;;;;;15.05;5.00;;;;;;;10.59;66.50;99947.56;5030976;28;20028;-84
2023/03/08 00:52:32;;;;;;;14.32;4.82;;;;;;;10.63;66.07;99949.84;5030255;28;20512;-83
2023/03/08 00:54:58;;;;;;;9.93;4.82;;;;;;;10.60;65.97;99955.50;5030926;28;20025;-84
2023/03/08 00:57:23;;;;;;;20.40;4.97;;;;;;;10.60;66.26;99957.34;5030262;28;20029;-84
2023/03/08 00:59:48;;;;;;;6.57;4.57;;;;;;;10.65;66.00;99953.25;5030827;28;20029;-83
2023/03/08 01:02:14;;;;;;;22.73;4.30;;;;;;;10.64;66.26;99954.22;5030920;28;20108;-84
2023/03/08 01:04:39;;;;;;;9.25;5.25;;;;;;;10.55;65.51;99948.88;5030380;28;20112;-83
2023/03/08 01:07:05;;;;;;;11.77;4.45;;;;;;;10.50;65.68;99946.59;5030652;28;20091;-84
2023/03/08 01:09:30;;;;;;;13.63;4.32;;;;;;;10.53;65.99;99946.31;5043423;28;20099;-83
2023/03/08 01:11:56;;;;;;;9.90;5.20;;;;;;;10.42;66.09;99943.75;5047620;28;20349;-83
2023/03/08 01:14:21;;;;;;;6.53;4.10;;;;;;;10.43;66.54;99950.81;5036675;28;20401;-83
2023/03/08 01:16:47;;;;;;;9.90;5.55;;;;;;;10.37;66.61;99940.63;5030728;28;20527;-82
2023/03/08 01:19:12;;;;;;;25.05;7.70;;;;;;;10.30;66.98;99940.31;5030855;28;20421;-83
2023/03/08 01:21:37;;;;;;;15.88;6.00;;;;;;;10.30;66.74;99948.38;5030242;28;20029;-83
2023/03/08 01:24:03;;;;;;;23.30;10.93;;;;;;;10.29;66.92;99943.19;5028665;28;20032;-83
2023/03/08 01:26:29;;;;;;;13.15;6.72;;;;;;;10.31;67.02;99936.66;5030281;28;20095;-83
2023/03/08 01:28:55;;;;;;;14.27;5.70;;;;;;;10.31;66.71;99941.19;5030377;28;20033;-84
2023/03/08 01:31:23;;;;;;;12.60;5.75;;;;;;;10.28;66.95;99941.47;5030049;28;20099;-81
2023/03/08 01:33:49;;;;;;;9.45;5.82;;;;;;;10.25;66.59;99944.44;5029111;28;20095;-84
2023/03/08 01:36:18;;;;;;;9.15;4.82;;;;;;;10.20;66.62;99938.63;5029220;28;20072;-82
2023/03/08 01:38:44;;;;;;;10.77;5.10;;;;;;;10.16;66.71;99935.38;5030173;28;20116;-82
2023/03/08 01:41:17;;;;;;;10.80;7.05;;;;;;;10.20;66.63;99949.38;5029490;28;20029;-83
2023/03/08 01:43:43;;;;;;;12.73;5.22;;;;;;;10.15;67.17;99930.16;5029577;28;20517;-83
2023/03/08 01:46:15;;;;;;;16.42;4.85;;;;;;;10.16;66.90;99942.56;5029881;28;20033;-83
2023/03/08 01:49:02;;;;;;;9.20;4.28;;;;;;;10.21;66.92;99943.03;5029840;28;20121;-83
2023/03/08 01:51:42;;;;;;;7.85;4.13;;;;;;;10.17;67.01;99946.97;5029721;28;20100;-83
2023/03/08 01:54:16;;;;;;;13.35;5.10;;;;;;;10.16;66.62;99934.53;5030203;28;20018;-83
2023/03/08 01:56:43;;;;;;;17.83;5.13;;;;;;;10.11;66.85;99924.16;5029628;28;20578;-83
2023/03/08 01:59:10;;;;;;;17.75;4.28;;;;;;;10.16;66.85;99932.69;5030061;28;20116;-83
2023/03/08 02:01:36;;;;;;;9.93;4.35;;;;;;;10.26;66.38;99946.13;5030198;28;20032;-83
2023/03/08 02:04:02;;;;;;;7.25;3.40;;;;;;;10.15;66.56;99940.91;5034154;28;20044;-83
2023/03/08 02:06:28;;;;;;;9.98;4.20;;;;;;;10.15;66.92;99943.59;5039735;28;20025;-83
2023/03/08 02:08:54;;;;;;;16.45;3.83;;;;;;;10.24;66.75;99951.63;5044925;28;20029;-82
2023/03/08 02:11:21;;;;;;;23.23;4.72;;;;;;;10.28;66.95;99954.91;5048220;28;20563;-80
2023/03/08 02:13:49;;;;;;;14.82;5.10;;;;;;;10.18;66.95;99952.19;5038200;28;20025;-84
2023/03/08 02:16:16;;;;;;;7.78;5.15;;;;;;;10.04;67.27;99946.34;5037685;28;20033;-84
2023/03/08 02:19:11;;;;;;;10.30;6.63;;;;;;;10.07;68.02;99954.13;5038328;28;20030;-83
2023/03/08 02:21:37;;;;;;;16.45;7.68;;;;;;;10.09;67.91;99942.25;5007353;28;20034;-84
2023/03/08 02:24:16;;;;;;;14.00;7.55;;;;;;;10.19;68.24;99947.69;5007116;28;20053;-83
2023/03/08 02:26:42;;;;;;;14.20;5.93;;;;;;;10.24;67.98;99945.44;4993167;28;20579;-83
2023/03/08 02:29:08;;;;;;;11.40;6.00;;;;;;;10.11;68.22;99945.66;5012022;28;20022;-83
2023/03/08 02:31:33;;;;;;;17.20;5.15;;;;;;;10.16;67.83;99947.94;5008234;28;20034;-82
2023/03/08 02:33:59;;;;;;;13.00;5.53;;;;;;;10.15;67.86;99957.84;5007033;28;20410;-84
2023/03/08 02:36:24;;;;;;;12.65;6.00;;;;;;;10.12;67.95;99947.34;5007503;28;20037;-82
2023/03/08 02:38:49;;;;;;;12.30;5.70;;;;;;;10.09;68.20;99946.78;5007529;28;20102;-84
2023/03/08 02:41:15;;;;;;;11.52;6.78;;;;;;;10.17;68.37;99949.66;5007906;28;20049;-81
2023/03/08 02:43:40;;;;;;;18.23;7.03;;;;;;;10.10;67.81;99954.69;5007474;28;20033;-84
2023/03/08 02:46:06;;;;;;;20.33;6.60;;;;;;;10.11;67.71;99947.50;5010064;28;20803;-83
2023/03/08 02:48:31;;;;;;;17.98;6.95;;;;;;;10.10;67.53;99953.84;5011502;28;20108;-84
2023/03/08 02:50:57;;;;;;;15.82;8.00;;;;;;;9.90;67.94;99954.78;5011162;28;20042;-84
2023/03/08 02:53:22;;;;;;;22.48;7.78;;;;;;;9.81;68.02;99959.16;5010908;28;20029;-83
2023/03/08 02:55:47;;;;;;;13.50;6.80;;;;;;;9.76;68.38;99943.44;5010607;28;20042;-83
2023/03/08 02:58:13;;;;;;;24.50;7.93;;;;;;;9.77;68.33;99942.47;5020532;28;20159;-83
2023/03/08 03:00:39;;;;;;;45.20;10.63;;;;;;;9.71;68.53;99943.00;5033166;28;20025;-82
2023/03/08 03:03:04;;;;;;;25.40;6.65;;;;;;;9.71;68.43;99947.53;5033111;28;20052;-82
2023/03/08 03:05:30;;;;;;;10.70;6.85;;;;;;;9.49;69.45;99937.81;5033122;28;20037;-82
2023/03/08 03:07:57;;;;;;;18.02;6.78;;;;;;;9.50;69.79;99939.53;5040780;28;20060;-82
2023/03/08 03:10:23;;;;;;;17.65;7.05;;;;;;;9.45;69.38;99940.94;5048384;28;20060;-82
2023/03/08 03:12:48;;;;;;;16.95;7.20;;;;;;;9.44;69.59;99940.06;5044150;28;20033;-81
2023/03/08 03:15:13;;;;;;;18.58;7.60;;;;;;;9.37;69.64;99938.91;5033007;28;20021;-83
2023/03/08 03:17:39;;;;;;;30.70;7.97;;;;;;;9.41;70.02;99947.53;5033054;28;20084;-83
2023/03/08 03:20:07;;;;;;;23.33;8.13;;;;;;;9.46;69.79;99959.56;5033050;28;20124;-84
2023/03/08 03:22:33;;;;;;;27.00;8.45;;;;;;;9.43;69.99;99961.66;5032643;28;20107;-84
2023/03/08 03:24:59;;;;;;;30.00;9.02;;;;;;;9.63;69.68;99966.16;5032315;28;20473;-84
2023/03/08 03:27:24;;;;;;;16.27;7.72;;;;;;;9.63;69.50;99966.97;5032249;28;20034;-83
2023/03/08 03:29:50;;;;;;;22.50;9.38;;;;;;;9.60;68.77;99963.75;5032343;28;20029;-84
2023/03/08 03:32:15;;;;;;;37.55;12.35;;;;;;;9.63;68.71;99972.34;5032293;28;20029;-81
2023/03/08 03:34:40;;;;;;;22.75;9.75;;;;;;;9.54;68.97;99969.66;5033403;28;20072;-83
2023/03/08 03:37:06;;;;;;;18.75;9.18;;;;;;;9.56;69.15;99981.09;5032759;28;20587;-85
2023/03/08 03:39:36;;;;;;;33.88;10.35;;;;;;;9.42;69.50;99979.59;5032333;28;20045;-83
2023/03/08 03:42:01;;;;;;;24.48;7.80;;;;;;;9.42;69.13;99984.13;5032633;28;20026;-82
2023/03/08 03:44:29;;;;;;;30.38;7.47;;;;;;;9.35;69.25;99970.41;5033340;28;20037;-83
2023/03/08 03:46:55;;;;;;;22.45;8.07;;;;;;;9.28;69.59;99962.03;5033817;28;20029;-82
2023/03/08 03:49:21;;;;;;;34.58;7.57;;;;;;;9.40;69.43;99981.56;5034360;28;20025;-83
2023/03/08 03:51:46;;;;;;;31.23;8.45;;;;;;;9.37;69.62;99981.84;5034138;28;20021;-83
2023/03/08 03:54:11;;;;;;;20.23;7.50;;;;;;;9.33;69.66;99979.56;5033293;28;20112;-82
2023/03/08 03:56:37;;;;;;;18.90;8.98;;;;;;;9.07;70.42;99979.13;5032139;28;20032;-84
2023/03/08 03:59:02;;;;;;;29.33;7.93;;;;;;;9.05;70.49;99968.50;5033305;28;20041;-83
2023/03/08 04:01:29;;;;;;;19.88;8.40;;;;;;;9.12;70.67;99987.59;5038612;28;20030;-82
2023/03/08 04:03:56;;;;;;;24.40;8.63;;;;;;;9.03;70.98;99983.03;5048257;28;20029;-82
2023/03/08 04:06:28;;;;;;;29.98;9.98;;;;;;;8.84;71.38;99966.81;5055383;28;20093;-81
2023/03/08 04:08:56;;;;;;;24.13;7.38;;;;;;;8.90;71.18;99977.03;5056366;28;20033;-80
2023/03/08 04:11:23;;;;;;;21.77;8.60;;;;;;;8.89;71.48;99969.97;5053752;28;20089;-82
2023/03/08 04:13:49;;;;;;;29.58;9.05;;;;;;;8.93;71.48;99982.97;5039301;28;20025;-83
2023/03/08 04:16:17;;;;;;;29.80;10.32;;;;;;;8.92;71.44;99991.16;5032011;28;20045;-82
2023/03/08 04:18:44;;;;;;;21.30;8.38;;;;;;;8.91;71.66;99984.06;5031650;28;20108;-82
2023/03/08 04:21:10;;;;;;;26.83;10.32;;;;;;;8.95;71.32;99975.66;5031310;28;20033;-84
2023/03/08 04:23:36;;;;;;;29.60;10.05;;;;;;;8.97;71.41;99975.50;5031666;28;20035;-83
2023/03/08 04:26:03;;;;;;;18.88;8.93;;;;;;;8.89;71.29;99969.97;5030231;28;20120;-83
2023/03/08 04:28:28;;;;;;;31.88;8.70;;;;;;;8.84;71.62;99966.81;5030943;28;20117;-83
2023/03/08 04:30:54;;;;;;;38.08;11.23;;;;;;;8.85;71.58;99955.09;5033687;28;20479;-80
2023/03/08 04:33:20;;;;;;;43.00;10.13;;;;;;;8.80;71.56;99965.38;5031060;28;20061;-85
2023/03/08 04:35:45;;;;;;;32.85;8.30;;;;;;;8.79;71.45;99966.34;5030757;28;20025;-84
2023/03/08 04:38:11;;;;;;;31.60;10.00;;;;;;;8.74;71.94;99966.75;5029607;28;20076;-82
2023/03/08 04:41:00;;;;;;;33.17;8.85;;;;;;;8.85;71.93;99969.38;5031057;28;20029;-84
2023/03/08 04:43:22;;;;;;;41.20;10.20;;;;;;;8.87;71.88;99966.56;5030713;28;20411;-83
2023/03/08 04:45:47;;;;;;;39.78;10.40;;;;;;;8.77;71.43;99954.91;5030677;28;20026;-83
2023/03/08 04:48:13;;;;;;;31.67;10.73;;;;;;;8.82;71.41;99966.09;5030524;28;21024;-82
2023/03/08 04:50:38;;;;;;;74.55;26.10;;;;;;;8.77;71.68;99972.69;5030451;28;20033;-83
2023/03/08 04:53:05;;;;;;;100.78;32.58;;;;;;;8.91;72.35;99984.06;5030695;28;20021;-84
2023/03/08 04:55:30;;;;;;;81.88;30.20;;;;;;;8.84;72.10;99977.56;5030625;28;20025;-83
2023/03/08 04:57:56;;;;;;;76.35;28.10;;;;;;;8.87;71.91;99979.97;5030149;28;20030;-83
2023/03/08 05:00:21;;;;;;;76.22;27.05;;;;;;;8.98;72.21;99986.13;5030627;28;20018;-84
2023/03/08 05:02:47;;;;;;;78.03;29.13;;;;;;;8.95;71.82;99986.38;5030813;28;20064;-81
2023/03/08 05:05:13;;;;;;;80.85;30.85;;;;;;;8.99;71.71;99986.97;5030851;28;20035;-84
2023/03/08 05:07:38;;;;;;;66.10;29.45;;;;;;;8.93;71.71;99977.59;5039744;28;20053;-84
2023/03/08 05:10:04;;;;;;;100.53;31.95;;;;;;;8.97;71.89;99978.19;5044406;28;20033;-83
2023/03/08 05:12:29;;;;;;;92.15;35.15;;;;;;;9.00;71.85;99973.41;5035421;28;20105;-88
2023/03/08 05:14:55;;;;;;;91.47;36.40;;;;;;;9.09;71.53;99978.00;5042788;28;20089;-84
2023/03/08 05:17:20;;;;;;;78.70;32.78;;;;;;;9.17;71.96;99991.59;5049657;28;20022;-86
2023/03/08 05:19:46;;;;;;;99.10;31.13;;;;;;;9.22;71.71;99983.16;5046939;28;20073;-84
2023/03/08 05:22:11;;;;;;;91.72;32.53;;;;;;;9.32;71.88;99997.50;5040570;28;20033;-90
2023/03/08 05:24:39;;;;;;;93.90;28.52;;;;;;;9.44;72.10;99988.38;5039690;28;20476;-85
2023/03/08 05:27:06;;;;;;;84.85;29.48;;;;;;;9.56;71.96;99991.81;5032406;28;20511;-87
2023/03/08 05:29:33;;;;;;;109.10;28.20;;;;;;;9.63;71.74;99996.50;5034032;28;20041;-89
2023/03/08 05:32:01;;;;;;;66.38;23.23;;;;;;;9.72;71.41;100003.75;5036029;28;20030;-87
2023/03/08 05:34:27;;;;;;;55.05;15.40;;;;;;;9.89;71.37;100007.66;5035876;28;20057;-90
2023/03/08 05:36:52;;;;;;;93.97;21.80;;;;;;;10.09;70.82;100014.78;5037741;28;20098;-85
2023/03/08 05:39:19;;;;;;;101.95;21.85;;;;;;;10.23;70.51;100002.84;5034962;28;20516;-82
2023/03/08 05:41:44;;;;;;;45.05;12.85;;;;;;;10.41;70.23;100009.25;5032848;28;20025;-86
2023/03/08 05:44:10;;;;;;;81.50;14.23;;;;;;;10.58;69.61;100013.94;5033629;28;20049;-85
2023/03/08 05:46:37;;;;;;;80.10;17.25;;;;;;;10.71;69.17;100008.28;5035802;28;20043;-89
2023/03/08 05:49:03;;;;;;;62.40;13.82;;;;;;;10.82;68.86;100017.06;5034172;28;20408;-88
2023/03/08 05:51:28;;;;;;;51.10;12.18;;;;;;;10.92;68.58;100011.69;5036686;28;20029;-86
2023/03/08 05:53:54;;;;;;;28.98;8.57;;;;;;;11.03;68.51;100016.09;5033867;28;20059;-86
2023/03/08 05:56:21;;;;;;;31.83;11.05;;;;;;;11.20;68.33;100004.59;5038828;28;20021;-90
2023/03/08 05:58:47;;;;;;;33.58;9.30;;;;;;;11.45;67.56;100014.75;5037790;28;20037;-86
2023/03/08 06:01:19;;;;;;;54.13;11.50;;;;;;;11.58;67.28;100009.91;5039005;28;20047;-85
2023/03/08 06:03:46;;;;;;;54.88;12.52;;;;;;;11.75;66.30;100017.25;5040467;28;20033;-88
2023/03/08 06:06:12;;;;;;;33.33;9.32;;;;;;;11.91;65.74;100016.63;5050934;28;20077;-87
2023/03/08 06:08:39;;;;;;;57.38;9.82;;;;;;;12.08;65.18;100013.13;5055461;28;20044;-85
2023/03/08 06:11:05;;;;;;;82.05;10.82;;;;;;;12.27;64.85;100012.19;5054017;28;20093;-90
2023/03/08 06:13:30;;;;;;;78.68;11.07;;;;;;;12.41;64.21;100000.91;5044534;28;20021;-88
2023/03/08 06:15:57;;;;;;;27.50;8.15;;;;;;;12.60;63.78;100016.13;5048658;28;20033;-90
2023/03/08 06:18:24;;;;;;;32.85;7.72;;;;;;;12.71;63.26;100005.94;5043801;28;20048;-89
2023/03/08 06:20:57;;;;;;;35.05;8.45;;;;;;;12.88;62.59;100015.88;5047780;28;20123;-88
2023/03/08 06:23:23;;;;;;;47.50;8.43;;;;;;;12.96;62.02;100009.72;5050396;28;20044;-90
2023/03/08 06:25:49;;;;;;;54.90;8.88;;;;;;;13.13;61.54;100008.03;5048877;28;20029;-91
2023/03/08 06:28:14;;;;;;;36.83;10.40;;;;;;;13.36;60.64;100028.16;5041799;28;20116;-91
2023/03/08 06:30:40;;;;;;;20.73;7.00;;;;;;;13.47;60.07;100020.63;5040275;28;20029;-90
2023/03/08 06:33:05;;;;;;;34.38;7.97;;;;;;;13.56;59.11;100025.06;5037846;28;20046;-85
2023/03/08 06:35:30;;;;;;;24.67;8.38;;;;;;;13.53;59.07;100008.34;5051772;28;20028;-85
2023/03/08 06:37:56;;;;;;;47.47;9.57;;;;;;;13.75;58.63;100034.84;5056634;28;20034;-86
2023/03/08 06:40:21;;;;;;;30.85;9.48;;;;;;;13.87;58.39;100032.69;5055136;28;20021;-82
2023/03/08 06:42:47;;;;;;;29.80;11.10;;;;;;;13.97;57.75;100044.25;5068407;28;20061;-89
2023/03/08 06:45:12;;;;;;;25.10;10.00;;;;;;;14.01;57.06;100040.19;5051077;28;20074;-83
2023/03/08 06:47:38;;;;;;;27.80;12.90;;;;;;;14.01;57.26;100030.25;5050651;28;20037;-88
2023/03/08 06:50:04;;;;;;;39.97;10.45;;;;;;;14.10;56.93;100040.09;5050369;28;20021;-84
2023/03/08 06:52:36;;;;;;;27.90;12.30;;;;;;;14.26;57.05;100050.13;5048324;28;20408;-89
2023/03/08 06:55:05;;;;;;;27.30;11.38;;;;;;;14.29;56.49;100027.31;5040413;28;20025;-85
2023/03/08 06:57:31;;;;;;;33.22;11.85;;;;;;;14.43;56.04;100046.50;5042018;28;20037;-88
2023/03/08 06:59:56;;;;;;;45.30;14.10;;;;;;;14.47;55.48;100047.03;5042485;28;20070;-88
2023/03/08 07:02:22;;;;;;;31.30;14.38;;;;;;;14.52;55.64;100044.69;5044788;28;20084;-91
2023/03/08 07:04:47;;;;;;;36.80;12.65;;;;;;;14.60;55.55;100042.84;5047237;28;20576;-84
2023/03/08 07:07:13;;;;;;;28.88;11.77;;;;;;;14.65;54.81;100039.63;5057413;28;20111;-83
2023/03/08 07:09:38;;;;;;;22.52;10.55;;;;;;;14.69;54.49;100047.28;5057878;28;20040;-83
2023/03/08 07:12:04;;;;;;;27.52;11.38;;;;;;;14.71;54.54;100049.81;5043116;28;20022;-90
2023/03/08 07:14:29;;;;;;;32.10;13.77;;;;;;;14.57;54.48;100034.22;5037084;28;20029;-91
2023/03/08 07:16:55;;;;;;;20.88;11.55;;;;;;;14.71;54.51;100050.66;5040322;28;20092;-89
2023/03/08 07:19:20;;;;;;;24.17;10.07;;;;;;;14.73;54.24;100055.06;5037778;28;20017;-91
2023/03/08 07:21:45;;;;;;;38.55;11.77;;;;;;;14.77;54.35;100062.69;5041038;28;20026;-89
2023/03/08 07:24:11;;;;;;;36.03;9.88;;;;;;;14.83;54.21;100062.00;5035741;28;20060;-89
2023/03/08 07:26:36;;;;;;;25.92;10.88;;;;;;;14.81;54.07;100064.06;5035396;28;20030;-89
2023/03/08 07:29:02;;;;;;;15.80;8.00;;;;;;;14.66;54.47;100053.03;5035564;28;20551;-91
2023/03/08 07:31:28;;;;;;;17.92;8.40;;;;;;;14.71;54.34;100069.59;5033287;28;20060;-90
2023/03/08 07:33:56;;;;;;;94.60;16.30;;;;;;;14.76;54.34;100079.97;5032235;28;20109;-91
2023/03/08 07:36:22;;;;;;;15.15;7.72;;;;;;;14.87;53.90;100073.38;5032325;28;20045;-91
2023/03/08 07:38:48;;;;;;;15.50;8.55;;;;;;;14.91;53.87;100075.59;5032500;28;20032;-90
2023/03/08 07:41:13;;;;;;;32.55;10.55;;;;;;;14.92;53.82;100079.97;5033800;28;20029;-92
2023/03/08 07:43:39;;;;;;;35.05;10.25;;;;;;;14.93;54.09;100070.00;5032449;28;20414;-90
2023/03/08 07:46:04;;;;;;;29.25;12.00;;;;;;;15.08;53.94;100080.00;5034175;28;20022;-90
2023/03/08 07:48:31;;;;;;;22.95;11.45;;;;;;;15.04;54.02;100061.56;5033617;28;20461;-89
2023/03/08 07:51:06;;;;;;;31.10;10.52;;;;;;;15.14;54.19;100054.97;5034808;28;20029;-89
2023/03/08 07:53:32;;;;;;;35.80;11.65;;;;;;;15.36;53.65;100079.69;5033944;28;20026;-91
2023/03/08 07:55:58;;;;;;;35.83;12.02;;;;;;;15.45;53.37;100070.56;5033798;28;20091;-91
2023/03/08 07:58:25;;;;;;;23.58;11.73;;;;;;;15.48;53.16;100062.13;5037114;28;20028;-90
2023/03/08 08:00:51;;;;;;;37.78;12.23;;;;;;;15.45;53.35;100059.72;5044391;28;20032;-90
2023/03/08 08:03:16;;;;;;;17.38;9.70;;;;;;;15.42;52.30;100055.50;5041812;28;20034;-90
2023/03/08 08:05:42;;;;;;;44.92;9.38;;;;;;;15.56;52.72;100062.97;5054284;28;20093;-83
2023/03/08 08:08:08;;;;;;;20.92;7.97;;;;;;;15.71;52.33;100066.69;5056494;28;20021;-84
2023/03/08 08:10:33;;;;;;;29.02;7.00;;;;;;;15.88;51.69;100069.38;5048383;28;20042;-87
2023/03/08 08:12:58;;;;;;;23.35;8.45;;;;;;;15.90;51.39;100060.03;5043748;28;20025;-89
2023/03/08 08:15:24;;;;;;;19.25;6.35;;;;;;;16.13;51.06;100055.56;5050197;28;20026;-85
2023/03/08 08:17:50;;;;;;;14.57;6.45;;;;;;;16.15;50.23;100052.69;5056655;28;20033;-84
2023/03/08 08:20:16;;;;;;;19.65;6.65;;;;;;;16.25;49.92;100059.59;5056227;28;20045;-90
2023/03/08 08:22:41;;;;;;;19.42;6.78;;;;;;;16.33;49.65;100056.84;5056290;28;20017;-90
2023/03/08 08:25:08;;;;;;;19.27;6.88;;;;;;;16.40;49.10;100058.88;5055829;28;20021;-92
2023/03/08 08:27:34;;;;;;;21.38;6.65;;;;;;;16.46;48.98;100055.44;5042242;28;20029;-91
2023/03/08 08:30:00;;;;;;;18.77;6.32;;;;;;;16.51;48.85;100058.50;5036200;28;20063;-91
2023/03/08 08:32:25;;;;;;;16.75;6.05;;;;;;;16.63;48.34;100049.81;5055533;28;20059;-87
2023/03/08 08:34:51;;;;;;;27.95;6.40;;;;;;;16.66;48.31;100045.91;5039490;28;20531;-91
2023/03/08 08:37:16;;;;;;;19.42;5.85;;;;;;;16.70;47.75;100041.78;5058289;28;20037;-89
2023/03/08 08:39:41;;;;;;;16.45;6.28;;;;;;;16.82;47.56;100049.34;5058719;28;20033;-90
2023/03/08 08:42:07;;;;;;;27.42;7.55;;;;;;;17.03;46.97;100048.69;5059347;28;20523;-91
2023/03/08 08:44:32;;;;;;;17.08;7.82;;;;;;;17.09;46.45;100047.16;5040565;28;20124;-92
2023/03/08 08:46:58;;;;;;;18.80;7.35;;;;;;;17.03;46.41;100039.72;5057372;28;20040;-91
2023/03/08 08:49:24;;;;;;;16.50;8.73;;;;;;;17.06;46.90;100042.09;5058289;28;20044;-90
2023/03/08 08:51:49;;;;;;;28.50;8.68;;;;;;;17.15;46.93;100035.56;5059706;28;20052;-86
2023/03/08 08:54:15;;;;;;;25.48;9.90;;;;;;;17.28;46.75;100027.63;5054003;28;20191;-90
2023/03/08 08:56:42;;;;;;;17.98;8.55;;;;;;;17.40;46.51;100037.03;5057033;28;20041;-89
2023/03/08 08:59:10;;;;;;;28.45;14.00;;;;;;;17.50;46.76;100034.06;5046805;28;20547;-91
2023/03/08 09:01:42;;;;;;;28.85;14.23;;;;;;;17.60;46.41;100040.13;5043864;28;20114;-93
2023/03/08 09:04:10;;;;;;;24.50;13.10;;;;;;;17.55;46.48;100029.78;5048923;28;20037;-86
2023/03/08 09:06:36;;;;;;;43.03;13.27;;;;;;;17.73;45.90;100034.91;5053201;28;20055;-85
2023/03/08 09:09:03;;;;;;;24.95;11.73;;;;;;;17.77;45.60;100030.78;5047347;28;20128;-92
2023/03/08 09:11:29;;;;;;;54.47;12.20;;;;;;;17.99;45.35;100027.13;5031867;28;20487;-89
2023/03/08 09:13:55;;;;;;;20.08;10.18;;;;;;;18.11;44.75;100031.09;5031409;28;20099;-90
2023/03/08 09:16:27;;;;;;;25.77;10.00;;;;;;;18.19;44.49;100031.00;5047143;28;20513;-88
2023/03/08 09:18:55;;;;;;;25.45;9.93;;;;;;;18.23;44.04;100026.00;5031427;28;20037;-90
2023/03/08 09:21:21;;;;;;;19.98;8.55;;;;;;;18.35;43.77;100029.94;5029678;28;20044;-91
2023/03/08 09:23:46;;;;;;;19.02;8.80;;;;;;;18.44;43.33;100023.34;5047482;28;20052;-90
2023/03/08 09:26:12;;;;;;;31.63;8.60;;;;;;;18.57;43.20;100031.72;5048285;28;20516;-90
2023/03/08 09:28:38;;;;;;;25.40;8.02;;;;;;;18.61;42.71;100007.69;5048574;28;20118;-90
2023/03/08 09:31:13;;;;;;;27.52;8.45;;;;;;;18.63;42.69;100017.34;5031621;28;20036;-92
2023/03/08 09:33:47;;;;;;;22.15;8.05;;;;;;;18.77;42.52;100018.34;5035904;28;20605;-88
2023/03/08 09:36:13;;;;;;;17.50;8.07;;;;;;;18.85;42.43;100012.78;5063955;28;20025;-89
2023/03/08 09:38:38;;;;;;;24.92;8.55;;;;;;;18.85;42.25;100012.78;5062194;28;20113;-90
2023/03/08 09:41:36;;;;;;;18.55;8.90;;;;;;;18.95;42.40;100016.91;5049659;28;20035;-91
2023/03/08 09:44:10;;;;;;;17.60;8.60;;;;;;;18.98;42.25;100015.66;5017799;28;20451;-89
2023/03/08 09:46:48;;;;;;;33.35;11.48;;;;;;;19.00;41.89;100019.03;5031912;28;20062;-88
2023/03/08 09:49:23;;;;;;;26.10;9.88;;;;;;;18.92;41.80;100008.25;5033871;28;20156;-88
2023/03/08 09:51:58;;;;;;;32.38;11.63;;;;;;;18.95;41.91;100005.16;5019237;28;20809;-90
2023/03/08 09:54:24;;;;;;;36.55;10.95;;;;;;;19.03;41.82;100008.59;5029161;28;20237;-90
2023/03/08 09:56:52;;;;;;;31.27;10.70;;;;;;;19.20;41.65;100009.19;5019595;28;20026;-92
2023/03/08 09:59:28;;;;;;;34.08;10.30;;;;;;;19.19;41.31;100002.03;5042023;28;20159;-90
2023/03/08 10:02:20;;;;;;;17.10;9.20;;;;;;;19.08;41.21;100007.97;5042267;28;20552;-85
2023/03/08 10:05:01;;;;;;;29.60;10.98;;;;;;;19.02;41.53;100006.03;5013834;28;20054;-85
2023/03/08 10:07:52;;;;;;;30.67;12.10;;;;;;;18.98;41.61;100004.75;5011283;28;20070;-91
2023/03/08 10:10:17;;;;;;;22.95;11.55;;;;;;;19.05;41.64;99999.38;5004461;28;20077;-84
2023/03/08 10:12:52;;;;;;;25.05;10.57;;;;;;;19.08;41.19;99994.34;5005080;28;20045;-91
2023/03/08 10:15:21;;;;;;;25.98;10.45;;;;;;;19.11;41.22;99988.50;4989892;28;20042;-89
2023/03/08 10:17:51;;;;;;;30.83;9.30;;;;;;;19.25;40.84;99995.78;4990007;28;20034;-90
2023/03/08 10:20:24;;;;;;;18.60;8.25;;;;;;;19.41;40.13;100003.75;4990491;28;20066;-91
2023/03/08 10:22:57;;;;;;;21.77;7.55;;;;;;;19.51;39.83;99993.31;4990565;28;20046;-91
2023/03/08 10:25:25;;;;;;;;;;;;;;;19.60;39.05;99991.28;4989514;28;20100;-89
2023/03/08 10:27:53;;;;;;;23.65;6.63;;;;;;;19.71;38.94;99989.91;4989765;28;19914;-91
2023/03/08 10:30:23;;;;;;;10.25;4.63;;;;;;;19.72;38.37;99980.69;4990514;28;20130;-90
2023/03/08 10:32:52;;;;;;;25.40;5.45;;;;;;;19.87;38.21;99979.53;4990454;28;20046;-92
2023/03/08 10:35:28;;;;;;;12.60;5.00;;;;;;;19.97;37.63;99973.69;4990482;28;20046;-89
2023/03/08 10:37:54;;;;;;;12.40;4.78;;;;;;;20.03;37.60;99975.59;5005156;28;20050;-91
2023/03/08 10:40:21;;;;;;;10.68;4.50;;;;;;;20.10;37.30;99974.59;4989817;28;20041;-88
2023/03/08 10:42:59;;;;;;;15.02;4.63;;;;;;;20.24;37.19;99970.06;5028212;28;20140;-91
2023/03/08 10:45:27;;;;;;;13.50;5.18;;;;;;;20.31;36.36;99961.91;5030741;28;20029;-87
2023/03/08 10:47:57;;;;;;;16.15;6.40;;;;;;;20.20;36.12;99973.41;5038526;28;20040;-89
2023/03/08 10:50:35;;;;;;;21.05;6.75;;;;;;;20.15;36.02;99954.88;5030960;28;20026;-90
2023/03/08 10:53:18;;;;;;;24.10;6.30;;;;;;;20.29;35.88;99956.66;5031116;28;20459;-90
2023/03/08 10:55:46;;;;;;;24.27;5.95;;;;;;;20.36;35.61;99963.00;5036329;28;20029;-90
2023/03/08 10:58:32;;;;;;;16.42;5.38;;;;;;;20.47;34.79;99959.69;5043741;28;20060;-88
2023/03/08 11:01:09;;;;;;;26.40;5.43;;;;;;;20.43;34.30;99947.47;5044591;28;20020;-85
2023/03/08 11:03:34;;;;;;;13.60;4.28;;;;;;;20.49;33.79;99946.66;5053850;28;20037;-83
2023/03/08 11:06:11;;;;;;;23.45;4.97;;;;;;;20.68;33.66;99960.56;5052385;28;20056;-89
2023/03/08 11:08:39;;;;;;;10.38;4.65;;;;;;;20.86;33.50;99947.16;5034184;28;20480;-92
2023/03/08 11:11:05;;;;;;;22.90;5.32;;;;;;;20.99;33.32;99930.78;5034107;28;20098;-90
2023/03/08 11:13:37;;;;;;;20.15;4.97;;;;;;;21.11;33.24;99918.19;5035061;28;20037;-92
2023/03/08 11:16:30;;;;;;;17.25;5.15;;;;;;;21.25;32.41;99936.31;5034183;28;20040;-90
2023/03/08 11:19:41;;;;;;;13.82;3.53;;;;;;;21.30;32.15;99928.31;5033942;28;20397;-91
2023/03/08 11:22:06;;;;;;;14.52;3.90;;;;;;;21.34;31.86;99934.19;5031597;28;20049;-91
2023/03/08 11:24:40;;;;;;;18.00;3.95;;;;;;;21.38;32.12;99930.81;5031262;28;20041;-91